createdAt,value
2022-08-09T00:01:57.849Z,100655.94
2022-08-09T00:04:38.701Z,100683.19
2022-08-09T00:07:21.974Z,100634.50
2022-08-09T00:10:03.175Z,100690.28
2022-08-09T00:12:52.660Z,100661.34
2022-08-09T00:15:57.941Z,100698.81
2022-08-09T00:18:35.074Z,100658.25
2022-08-09T00:21:11.800Z,100667.81
2022-08-09T00:24:10.698Z,100708.22
2022-08-09T00:26:49.023Z,100707.16
2022-08-09T00:30:10.417Z,100668.44
2022-08-09T00:32:29.777Z,100699.63
2022-08-09T00:35:16.716Z,100688.00
2022-08-09T00:37:50.787Z,100709.06
2022-08-09T00:40:37.712Z,100720.91
2022-08-09T00:44:16.716Z,100713.41
2022-08-09T00:46:56.019Z,100703.81
2022-08-09T00:49:52.640Z,100715.69
2022-08-09T00:52:42.774Z,100719.22
2022-08-09T00:55:32.584Z,100704.84
2022-08-09T00:58:25.619Z,100670.50
2022-08-09T01:01:25.781Z,100731.69
2022-08-09T01:04:24.792Z,100729.41
2022-08-09T01:07:07.748Z,100727.75
2022-08-09T01:10:15.676Z,100724.00
2022-08-09T01:13:03.782Z,100682.16
2022-08-09T01:15:58.688Z,100727.38
2022-08-09T01:18:34.919Z,100711.09
2022-08-09T01:21:44.701Z,100735.00
2022-08-09T01:24:44.035Z,100739.81
2022-08-09T01:27:39.844Z,100745.41
2022-08-09T01:30:33.747Z,100721.28
2022-08-09T01:33:22.707Z,100735.25
2022-08-09T01:36:17.915Z,100725.03
2022-08-09T01:39:06.730Z,100723.16
2022-08-09T01:41:53.525Z,100726.69
2022-08-09T01:44:40.760Z,100712.31
2022-08-09T01:47:31.352Z,100714.81
2022-08-09T01:50:18.670Z,100713.75
2022-08-09T01:53:20.003Z,100735.63
2022-08-09T01:56:02.671Z,100742.31
2022-08-09T01:58:49.156Z,100723.78
2022-08-09T02:02:00.358Z,100724.19
2022-08-09T02:04:40.612Z,100733.56
2022-08-09T02:08:38.627Z,100704.41
2022-08-09T02:10:51.874Z,100746.06
2022-08-09T02:14:07.387Z,100723.16
2022-08-09T02:16:53.443Z,100744.38
2022-08-09T02:19:55.765Z,100722.31
2022-08-09T02:22:48.672Z,100732.50
2022-08-09T02:25:55.616Z,100751.69
2022-08-09T02:29:03.749Z,100728.56
2022-08-09T02:31:59.744Z,100748.75
2022-08-09T02:34:55.872Z,100722.72
2022-08-09T02:37:36.783Z,100744.78
2022-08-09T02:40:30.487Z,100743.53
2022-08-09T02:43:18.886Z,100717.72
2022-08-09T02:46:16.895Z,100738.94
2022-08-09T02:49:12.282Z,100722.50
2022-08-09T02:51:56.749Z,100740.38
2022-08-09T02:55:20.094Z,100739.34
2022-08-09T02:58:36.153Z,100743.91
2022-08-09T03:01:04.872Z,100732.84
2022-08-09T03:04:19.827Z,100750.16
2022-08-09T03:07:15.064Z,100720.75
2022-08-09T03:10:02.897Z,100723.88
2022-08-09T03:12:38.025Z,100737.00
2022-08-09T03:15:40.395Z,100719.00
2022-08-09T03:18:30.565Z,100750.03
2022-08-09T03:21:19.041Z,100750.84
2022-08-09T03:24:04.620Z,100746.66
2022-08-09T03:26:47.185Z,100755.41
2022-08-09T03:29:28.956Z,100752.88
2022-08-09T03:32:10.998Z,100766.81
2022-08-09T03:34:58.692Z,100755.81
2022-08-09T03:37:55.317Z,100760.41
2022-08-09T03:40:41.663Z,100764.13
2022-08-09T03:43:15.743Z,100783.03
2022-08-09T03:46:04.251Z,100733.59
2022-08-09T03:49:17.442Z,100769.09
2022-08-09T03:52:06.721Z,100779.91
2022-08-09T03:54:50.971Z,100718.50
2022-08-09T03:57:30.709Z,100773.09
2022-08-09T04:00:13.035Z,100783.47
2022-08-09T04:02:57.748Z,100753.75
2022-08-09T04:05:46.738Z,100755.72
2022-08-09T04:08:29.057Z,100791.59
2022-08-09T04:11:16.741Z,100789.31
2022-08-09T04:14:36.968Z,100783.91
2022-08-09T04:16:57.359Z,100788.28
2022-08-09T04:19:42.898Z,100751.88
2022-08-09T04:22:41.136Z,100802.72
2022-08-09T04:25:17.054Z,100800.38
2022-08-09T04:28:07.708Z,100797.06
2022-08-09T04:30:47.666Z,100807.66
2022-08-09T04:33:51.728Z,100763.47
2022-08-09T04:36:40.409Z,100792.63
2022-08-09T04:39:40.548Z,100785.34
2022-08-09T04:42:25.225Z,100785.78
2022-08-09T04:48:18.218Z,100720.03
2022-08-09T04:54:09.760Z,100807.53
2022-08-09T04:57:54.103Z,100701.72
2022-08-09T05:00:54.470Z,100655.72
2022-08-09T05:03:58.482Z,100816.69
2022-08-09T05:07:18.986Z,100651.69
2022-08-09T05:10:05.927Z,100833.09
2022-08-09T05:13:16.004Z,100828.13
2022-08-09T05:16:18.852Z,100727.09
2022-08-09T05:19:13.640Z,100638.75
2022-08-09T05:25:24.712Z,100683.56
2022-08-09T05:35:05.671Z,100836.03
2022-08-09T05:38:04.750Z,100699.19
2022-08-09T05:44:22.105Z,100835.63
2022-08-09T05:47:15.745Z,100676.44
2022-08-09T05:50:31.249Z,100796.00
2022-08-09T05:53:51.611Z,100848.34
2022-08-09T05:56:54.887Z,100806.47
2022-08-09T05:59:42.699Z,100836.47
2022-08-09T06:02:22.762Z,100710.88
2022-08-09T06:05:16.657Z,100843.56
2022-08-09T06:08:11.042Z,100717.31
2022-08-09T06:11:16.528Z,100825.19
2022-08-09T06:14:06.804Z,100841.25
2022-08-09T06:16:53.661Z,100826.44
2022-08-09T06:19:27.647Z,100802.28
2022-08-09T06:22:15.202Z,100847.69
2022-08-09T06:24:49.011Z,100827.03
2022-08-09T06:27:42.043Z,100839.50
2022-08-09T06:30:17.868Z,100789.69
2022-08-09T06:33:30.639Z,100805.91
2022-08-09T06:35:58.421Z,100830.94
2022-08-09T06:38:50.057Z,100845.69
2022-08-09T06:42:08.245Z,100833.63
2022-08-09T06:44:41.702Z,100809.88
2022-08-09T06:47:17.312Z,100846.06
2022-08-09T06:50:14.155Z,100831.56
2022-08-09T06:53:52.652Z,100856.25
2022-08-09T06:56:46.646Z,100860.63
2022-08-09T07:00:49.454Z,100848.47
2022-08-09T07:02:34.128Z,100825.88
2022-08-09T07:05:21.636Z,100844.38
2022-08-09T07:08:02.669Z,100881.00
2022-08-09T07:10:50.745Z,100865.91
2022-08-09T07:13:28.320Z,100877.03
2022-08-09T07:16:41.316Z,100868.91
2022-08-09T07:19:15.720Z,100868.78
2022-08-09T07:22:05.658Z,100870.47
2022-08-09T07:24:40.704Z,100859.13
2022-08-09T07:27:42.728Z,100878.91
2022-08-09T07:30:37.263Z,100861.47
2022-08-09T07:33:53.041Z,100871.44
2022-08-09T07:36:47.396Z,100883.03
2022-08-09T07:39:40.536Z,100877.00
2022-08-09T07:42:21.619Z,100840.97
2022-08-09T07:45:22.687Z,100869.66
2022-08-09T07:48:05.163Z,100861.00
2022-08-09T07:50:53.050Z,100846.88
2022-08-09T07:54:05.540Z,100864.78
2022-08-09T07:56:49.298Z,100879.97
2022-08-09T07:59:34.258Z,100875.78
2022-08-09T08:02:32.902Z,100869.06
2022-08-09T08:05:17.568Z,100861.13
2022-08-09T08:09:02.585Z,100864.13
2022-08-09T08:12:11.531Z,100865.28
2022-08-09T08:14:36.708Z,100828.88
2022-08-09T08:17:12.080Z,100849.50
2022-08-09T08:20:00.649Z,100769.44
2022-08-09T08:22:41.903Z,100832.81
2022-08-09T08:25:40.328Z,100848.25
2022-08-09T08:28:35.103Z,100790.13
2022-08-09T08:31:16.801Z,100768.38
2022-08-09T08:34:10.632Z,100828.28
2022-08-09T08:37:01.353Z,100841.66
2022-08-09T08:39:47.305Z,100858.34
2022-08-09T08:42:43.610Z,100737.72
2022-08-09T08:46:32.564Z,100849.56
2022-08-09T08:48:51.848Z,100862.75
2022-08-09T08:51:41.878Z,100841.53
2022-08-09T08:54:33.821Z,100821.06
2022-08-09T08:57:24.298Z,100816.00
2022-08-09T09:00:17.071Z,100837.97
2022-08-09T09:03:25.245Z,100879.72
2022-08-09T09:06:29.275Z,100832.78
2022-08-09T09:09:21.190Z,100810.16
2022-08-09T09:12:16.844Z,100829.19
2022-08-09T09:15:07.858Z,100852.81
2022-08-09T09:17:52.751Z,100841.22
2022-08-09T09:20:50.857Z,100857.53
2022-08-09T09:23:58.338Z,100837.41
2022-08-09T09:26:45.813Z,100840.34
2022-08-09T09:30:08.474Z,100854.84
2022-08-09T09:32:41.692Z,100863.69
2022-08-09T09:35:30.672Z,100819.44
2022-08-09T09:38:07.713Z,100837.06
2022-08-09T09:41:04.716Z,100833.97
2022-08-09T09:44:12.079Z,100836.91
2022-08-09T09:46:53.793Z,100846.41
2022-08-09T09:49:56.169Z,100825.22
2022-08-09T09:52:37.761Z,100779.56
2022-08-09T09:55:32.680Z,100844.59
2022-08-09T09:58:26.635Z,100852.38
2022-08-09T10:01:37.213Z,100803.53
2022-08-09T10:04:22.795Z,100851.22
2022-08-09T10:07:30.083Z,100842.03
2022-08-09T10:10:11.743Z,100809.44
2022-08-09T10:13:00.700Z,100838.34
2022-08-09T10:16:08.965Z,100831.00
2022-08-09T10:19:00.697Z,100795.50
2022-08-09T10:21:42.690Z,100805.38
2022-08-09T10:24:43.645Z,100836.59
2022-08-09T10:27:38.487Z,100828.25
2022-08-09T10:34:04.401Z,100833.75
2022-08-09T10:36:17.780Z,100773.50
2022-08-09T10:39:15.801Z,100827.91
2022-08-09T10:41:52.754Z,100822.09
2022-08-09T10:44:42.646Z,100800.13
2022-08-09T10:48:26.388Z,100812.25
2022-08-09T10:51:29.519Z,100812.69
2022-08-09T10:54:13.985Z,100812.38
2022-08-09T10:57:15.664Z,100795.28
2022-08-09T11:00:01.458Z,100805.03
2022-08-09T11:03:13.914Z,100756.56
2022-08-09T11:06:32.850Z,100806.16
2022-08-09T11:09:23.704Z,100783.56
2022-08-09T11:12:08.121Z,100804.13
2022-08-09T11:15:03.628Z,100802.81
2022-08-09T11:17:41.918Z,100813.31
2022-08-09T11:20:51.698Z,100769.38
2022-08-09T11:23:30.126Z,100761.44
2022-08-09T11:26:54.725Z,100788.19
2022-08-09T11:30:33.373Z,100784.63
2022-08-09T11:33:25.048Z,100782.63
2022-08-09T11:36:03.960Z,100775.13
2022-08-09T11:39:06.860Z,100756.47
2022-08-09T11:41:45.122Z,100688.81
2022-08-09T11:44:51.738Z,100729.13
2022-08-09T11:47:33.135Z,100730.19
2022-08-09T11:50:53.082Z,100717.47
2022-08-09T11:54:01.529Z,100775.66
2022-08-09T11:56:42.441Z,100761.41
2022-08-09T11:59:43.700Z,100736.38
2022-08-09T12:02:39.637Z,100725.38
2022-08-09T12:05:25.900Z,100611.53
2022-08-09T12:08:21.754Z,100750.16
2022-08-09T12:11:03.292Z,100747.69
2022-08-09T12:14:09.819Z,100750.94
2022-08-09T12:16:53.507Z,100722.34
2022-08-09T12:19:42.708Z,100593.84
2022-08-09T12:22:20.295Z,100595.06
2022-08-09T12:25:36.540Z,100734.53
2022-08-09T12:28:58.592Z,100733.16
2022-08-09T12:32:02.489Z,100683.41
2022-08-09T12:34:56.762Z,100708.41
2022-08-09T12:37:53.929Z,100714.47
2022-08-09T12:40:58.644Z,100722.16
2022-08-09T12:44:06.356Z,100696.03
2022-08-09T12:46:48.773Z,100714.44
2022-08-09T12:49:38.683Z,100715.84
2022-08-09T12:52:44.162Z,100702.38
2022-08-09T12:56:14.779Z,100703.72
2022-08-09T12:59:17.706Z,100701.53
2022-08-09T13:02:15.889Z,100709.78
2022-08-09T13:05:08.682Z,100704.31
2022-08-09T13:07:50.908Z,100689.47
2022-08-09T13:10:38.777Z,100679.84
2022-08-09T13:13:18.671Z,100663.31
2022-08-09T13:16:12.758Z,100690.28
2022-08-09T13:18:54.567Z,100619.34
2022-08-09T13:22:37.624Z,100659.47
2022-08-09T13:24:53.098Z,100689.19
2022-08-09T13:27:54.938Z,100652.06
2022-08-09T13:30:50.557Z,100688.06
2022-08-09T13:34:04.885Z,100686.69
2022-08-09T13:36:43.324Z,100679.81
2022-08-09T13:41:50.414Z,100658.97
2022-08-09T13:42:25.962Z,100679.00
2022-08-09T13:45:14.840Z,100683.38
2022-08-09T13:47:58.372Z,100639.69
2022-08-09T13:50:45.659Z,100678.16
2022-08-09T13:53:21.836Z,100659.16
2022-08-09T13:56:26.724Z,100650.91
2022-08-09T13:59:07.793Z,100600.63
2022-08-09T14:02:02.511Z,100624.53
2022-08-09T14:05:00.086Z,100607.22
2022-08-09T14:07:46.698Z,100576.19
2022-08-09T14:10:37.441Z,100622.03
2022-08-09T14:14:23.195Z,100660.28
2022-08-09T14:16:29.644Z,100667.97
2022-08-09T14:19:03.840Z,100655.88
2022-08-09T14:21:50.675Z,100670.19
2022-08-09T14:24:22.077Z,100676.78
2022-08-09T14:27:00.264Z,100670.75
2022-08-09T14:30:35.791Z,100673.75
2022-08-09T14:32:28.716Z,100657.56
2022-08-09T14:34:58.696Z,100679.28
2022-08-09T14:37:28.044Z,100658.38
2022-08-09T14:39:55.708Z,100650.41
2022-08-09T14:42:31.456Z,100660.28
2022-08-09T14:46:46.150Z,100618.81
2022-08-09T14:47:57.995Z,100655.63
2022-08-09T14:50:26.928Z,100655.88
2022-08-09T14:52:54.594Z,100633.66
2022-08-09T14:55:21.637Z,100646.81
2022-08-09T14:57:49.369Z,100641.34
2022-08-09T15:00:17.803Z,100637.19
2022-08-09T15:02:47.462Z,100627.25
2022-08-09T15:05:19.343Z,100610.22
2022-08-09T15:07:56.051Z,100638.22
2022-08-09T15:10:26.840Z,100644.81
2022-08-09T15:12:57.881Z,100621.47
2022-08-09T15:15:28.570Z,100597.25
2022-08-09T15:17:58.565Z,100651.75
2022-08-09T15:21:58.349Z,100661.09
2022-08-09T15:24:09.003Z,100664.13
2022-08-09T15:26:01.491Z,100669.09
2022-08-09T15:28:33.328Z,100656.97
2022-08-09T15:31:14.619Z,100637.06
2022-08-09T15:34:31.887Z,100660.47
2022-08-09T15:36:32.768Z,100681.13
2022-08-09T15:39:00.824Z,100684.22
2022-08-09T15:41:31.204Z,100685.34
2022-08-09T15:44:03.804Z,100675.97
2022-08-09T15:46:34.489Z,100684.97
2022-08-09T15:49:23.011Z,100686.47
2022-08-09T15:52:03.002Z,100693.41
2022-08-09T15:54:48.960Z,100708.06
2022-08-09T15:57:19.332Z,100706.34
2022-08-09T16:00:11.032Z,100705.69
2022-08-09T16:02:48.160Z,100710.50
2022-08-09T16:05:21.274Z,100673.81
2022-08-09T16:07:50.784Z,100724.25
2022-08-09T16:10:55.313Z,100697.97
2022-08-09T16:13:18.691Z,100723.00
2022-08-09T16:16:11.853Z,100712.63
2022-08-09T16:18:44.671Z,100716.16
2022-08-09T16:21:17.303Z,100724.97
2022-08-09T16:23:55.397Z,100675.06
2022-08-09T16:26:34.729Z,100689.97
2022-08-09T16:29:11.201Z,100684.97
2022-08-09T16:32:19.129Z,100706.84
2022-08-09T16:34:57.050Z,100728.31
2022-08-09T16:37:55.180Z,100722.72
2022-08-09T16:40:13.459Z,100671.44
2022-08-09T16:42:45.374Z,100707.63
2022-08-09T16:45:17.618Z,100688.47
2022-08-09T16:48:39.385Z,100723.03
2022-08-09T16:50:34.261Z,100725.19
2022-08-09T16:53:02.690Z,100705.63
2022-08-09T16:56:01.443Z,100733.22
2022-08-09T16:58:20.902Z,100739.09
2022-08-09T17:00:48.962Z,100743.50
2022-08-09T17:03:21.458Z,100736.25
2022-08-09T17:06:06.930Z,100756.22
2022-08-09T17:08:45.245Z,100724.63
2022-08-09T17:11:24.341Z,100741.44
2022-08-09T17:14:01.099Z,100764.69
2022-08-09T17:16:29.608Z,100753.47
2022-08-09T17:18:56.636Z,100768.84
2022-08-09T17:21:25.281Z,100734.41
2022-08-09T17:24:20.645Z,100732.03
2022-08-09T17:26:43.189Z,100715.66
2022-08-09T17:29:20.038Z,100774.66
2022-08-09T17:31:49.195Z,100720.97
2022-08-09T17:35:00.502Z,100730.97
2022-08-09T17:37:04.124Z,100774.16
2022-08-09T17:39:48.577Z,100771.03
2022-08-09T17:42:41.531Z,100755.31
2022-08-09T17:45:06.490Z,100760.53
2022-08-09T17:47:49.796Z,100787.88
2022-08-09T17:50:24.916Z,100766.69
2022-08-09T17:53:19.397Z,100786.28
2022-08-09T17:55:51.959Z,100782.69
2022-08-09T17:58:26.991Z,100764.97
2022-08-09T18:00:56.630Z,100797.00
2022-08-09T18:03:26.397Z,100761.66
2022-08-09T18:05:57.248Z,100796.56
2022-08-09T18:08:27.793Z,100770.06
2022-08-09T18:11:01.982Z,100788.94
2022-08-09T18:13:43.141Z,100799.34
2022-08-09T18:16:29.457Z,100771.72
2022-08-09T18:18:59.511Z,100786.22
2022-08-09T18:21:40.869Z,100792.94
2022-08-09T18:24:14.226Z,100777.91
2022-08-09T18:26:46.717Z,100789.53
2022-08-09T18:30:37.646Z,100795.56
2022-08-09T18:32:05.550Z,100750.53
2022-08-09T18:34:35.333Z,100761.66
2022-08-09T18:37:10.229Z,100808.09
2022-08-09T18:39:53.730Z,100768.09
2022-08-09T18:42:21.211Z,100774.22
2022-08-09T18:44:56.935Z,100798.09
2022-08-09T18:47:27.565Z,100811.00
2022-08-09T18:49:59.976Z,100814.19
2022-08-09T18:52:35.017Z,100783.47
2022-08-09T18:55:03.547Z,100803.84
2022-08-09T18:57:43.268Z,100791.44
2022-08-09T19:00:20.025Z,100766.22
2022-08-09T19:02:51.123Z,100825.72
2022-08-09T19:05:48.767Z,100842.00
2022-08-09T19:08:10.749Z,100841.00
2022-08-09T19:10:45.893Z,100843.31
2022-08-09T19:13:18.614Z,100842.34
2022-08-09T19:15:55.609Z,100836.94
2022-08-09T19:18:33.326Z,100839.63
2022-08-09T19:21:03.532Z,100837.78
2022-08-09T19:24:32.392Z,100807.91
2022-08-09T19:26:22.445Z,100846.63
2022-08-09T19:28:57.308Z,100756.34
2022-08-09T19:31:45.697Z,100850.31
2022-08-09T19:34:21.782Z,100852.38
2022-08-09T19:36:55.470Z,100833.47
2022-08-09T19:39:43.523Z,100852.19
2022-08-09T19:42:15.333Z,100856.44
2022-08-09T19:44:50.868Z,100857.91
2022-08-09T19:47:23.409Z,100843.25
2022-08-09T19:50:09.968Z,100817.00
2022-08-09T19:52:51.882Z,100871.38
2022-08-09T19:55:25.621Z,100869.53
2022-08-09T19:57:58.013Z,100831.66
2022-08-09T20:00:24.908Z,100863.78
2022-08-09T20:04:17.068Z,100844.38
2022-08-09T20:05:46.519Z,100873.50
2022-08-09T20:08:33.205Z,100847.50
2022-08-09T20:11:04.538Z,100865.84
2022-08-09T20:13:37.198Z,100854.78
2022-08-09T20:16:33.263Z,100818.75
2022-08-09T20:19:42.713Z,100858.38
2022-08-09T20:21:56.025Z,100872.16
2022-08-09T20:24:31.793Z,100866.56
2022-08-09T20:27:05.435Z,100859.28
2022-08-09T20:29:37.809Z,100808.94
2022-08-09T20:32:29.949Z,100846.78
2022-08-09T20:34:58.851Z,100802.09
2022-08-09T20:38:18.713Z,100826.25
2022-08-09T20:40:19.073Z,100881.38
2022-08-09T20:43:11.885Z,100845.00
2022-08-09T20:46:00.567Z,100848.38
2022-08-09T20:48:29.074Z,100821.50
2022-08-09T20:50:59.363Z,100872.31
2022-08-09T20:53:36.940Z,100869.59
2022-08-09T20:56:08.818Z,100883.75
2022-08-09T20:58:36.281Z,100868.09
2022-08-09T21:01:32.934Z,100850.66
2022-08-09T21:04:07.830Z,100833.63
2022-08-09T21:06:44.119Z,100822.38
2022-08-09T21:09:13.620Z,100883.63
2022-08-09T21:14:31.128Z,100879.88
2022-08-09T21:16:59.345Z,100879.66
2022-08-09T21:20:17.890Z,100878.84
2022-08-09T21:22:37.763Z,100835.72
2022-08-09T21:25:20.619Z,100856.16
2022-08-09T21:28:00.366Z,100822.81
2022-08-09T21:30:27.601Z,100854.28
